createdAt,value
2023-05-09T00:00:20.515Z,7.30
2023-05-09T00:01:20.558Z,7.27
2023-05-09T00:02:20.498Z,7.24
2023-05-09T00:03:20.565Z,7.22
2023-05-09T00:04:20.483Z,7.21
2023-05-09T00:05:20.496Z,7.25
2023-05-09T00:06:20.418Z,7.29
2023-05-09T00:07:20.508Z,7.31
2023-05-09T00:08:20.401Z,7.28
2023-05-09T00:09:20.458Z,7.28
2023-05-09T00:10:20.376Z,7.23
2023-05-09T00:11:20.433Z,7.18
2023-05-09T00:12:20.334Z,7.17
2023-05-09T00:13:20.498Z,7.20
2023-05-09T00:14:20.314Z,7.24
2023-05-09T00:15:20.409Z,7.24
2023-05-09T00:16:20.292Z,7.21
2023-05-09T00:17:20.392Z,7.19
2023-05-09T00:18:20.252Z,7.18
2023-05-09T00:19:20.294Z,7.13
2023-05-09T00:20:20.245Z,7.07
2023-05-09T00:21:20.258Z,7.04
2023-05-09T00:22:20.211Z,7.00
2023-05-09T00:23:20.210Z,6.98
2023-05-09T00:24:20.179Z,6.95
2023-05-09T00:25:20.219Z,6.94
2023-05-09T00:26:20.138Z,6.91
2023-05-09T00:27:22.248Z,6.87
2023-05-09T00:28:20.129Z,6.83
2023-05-09T00:29:20.152Z,6.81
2023-05-09T00:30:20.095Z,6.83
2023-05-09T00:31:20.156Z,6.83
2023-05-09T00:32:20.101Z,6.84
2023-05-09T00:33:20.131Z,6.86
2023-05-09T00:34:20.057Z,6.85
2023-05-09T00:35:20.094Z,6.83
2023-05-09T00:36:20.128Z,6.80
2023-05-09T00:37:22.253Z,6.77
2023-05-09T00:38:20.011Z,6.75
2023-05-09T00:39:19.987Z,6.70
2023-05-09T00:40:20.018Z,6.70
2023-05-09T00:41:19.948Z,6.67
2023-05-09T00:42:20.054Z,6.64
2023-05-09T00:43:19.920Z,6.62
2023-05-09T00:44:19.966Z,6.58
2023-05-09T00:45:19.931Z,6.57
2023-05-09T00:46:20.008Z,6.55
2023-05-09T00:47:19.863Z,6.54
2023-05-09T00:48:19.882Z,6.53
2023-05-09T00:49:19.836Z,6.54
2023-05-09T00:50:19.892Z,6.55
2023-05-09T00:51:19.830Z,6.54
2023-05-09T00:52:19.917Z,6.55
2023-05-09T00:53:19.781Z,6.52
2023-05-09T00:54:19.815Z,6.47
2023-05-09T00:55:19.766Z,6.44
2023-05-09T00:56:19.849Z,6.40
2023-05-09T00:57:19.764Z,6.38
2023-05-09T00:58:19.734Z,6.36
2023-05-09T00:59:19.706Z,6.35
2023-05-09T01:00:19.773Z,6.34
2023-05-09T01:01:19.741Z,6.36
2023-05-09T01:02:19.799Z,6.36
2023-05-09T01:03:19.780Z,6.36
2023-05-09T01:04:19.691Z,6.37
2023-05-09T01:05:19.619Z,6.40
2023-05-09T01:06:19.695Z,6.42
2023-05-09T01:07:19.618Z,6.46
2023-05-09T01:08:19.623Z,6.49
2023-05-09T01:09:19.600Z,6.50
2023-05-09T01:10:19.659Z,6.54
2023-05-09T01:11:19.546Z,6.58
2023-05-09T01:12:19.649Z,6.65
2023-05-09T01:13:19.539Z,6.70
2023-05-09T01:14:19.554Z,6.75
2023-05-09T01:15:19.516Z,6.78
2023-05-09T01:16:19.663Z,6.81
2023-05-09T01:17:19.468Z,6.85
2023-05-09T01:18:19.471Z,6.90
2023-05-09T01:19:19.435Z,6.95
2023-05-09T01:20:19.503Z,6.99
2023-05-09T01:21:19.432Z,7.04
2023-05-09T01:22:19.408Z,7.09
2023-05-09T01:23:19.390Z,7.19
2023-05-09T01:24:19.431Z,7.27
2023-05-09T01:25:19.336Z,7.33
2023-05-09T01:26:19.441Z,7.37
2023-05-09T01:27:19.324Z,7.40
2023-05-09T01:28:19.338Z,7.47
2023-05-09T01:29:19.338Z,7.57
2023-05-09T01:30:19.386Z,7.63
2023-05-09T01:31:19.301Z,7.70
2023-05-09T01:32:19.278Z,7.78
2023-05-09T01:33:19.276Z,7.86
2023-05-09T01:34:19.326Z,7.94
2023-05-09T01:35:19.222Z,8.02
2023-05-09T01:36:19.294Z,8.09
2023-05-09T01:37:19.190Z,8.11
2023-05-09T01:38:19.242Z,8.14
2023-05-09T01:39:19.197Z,8.16
2023-05-09T01:40:19.247Z,8.20
2023-05-09T01:41:19.144Z,8.21
2023-05-09T01:42:40.245Z,8.19
2023-05-09T01:43:19.117Z,8.17
2023-05-09T01:44:19.164Z,8.19
2023-05-09T01:45:19.134Z,8.21
2023-05-09T01:46:19.206Z,8.24
2023-05-09T01:47:19.054Z,8.27
2023-05-09T01:48:19.086Z,8.29
2023-05-09T01:49:19.034Z,8.32
2023-05-09T01:50:19.111Z,8.34
2023-05-09T01:51:19.029Z,8.35
2023-05-09T01:52:19.076Z,8.35
2023-05-09T01:53:18.974Z,8.36
2023-05-09T01:54:19.018Z,8.36
2023-05-09T01:55:18.947Z,8.39
2023-05-09T01:56:19.052Z,8.41
2023-05-09T01:57:18.962Z,8.43
2023-05-09T01:58:18.955Z,8.42
2023-05-09T01:59:18.903Z,8.37
2023-05-09T02:00:18.967Z,8.36
2023-05-09T02:01:18.911Z,8.38
2023-05-09T02:02:18.948Z,8.35
2023-05-09T02:03:18.901Z,8.33
2023-05-09T02:04:19.932Z,8.34
2023-05-09T02:05:18.825Z,8.36
2023-05-09T02:06:18.905Z,8.36
2023-05-09T02:07:18.796Z,8.35
2023-05-09T02:08:18.826Z,8.33
2023-05-09T02:09:18.865Z,8.29
2023-05-09T02:10:18.837Z,8.26
2023-05-09T02:11:18.746Z,8.23
2023-05-09T02:12:18.865Z,8.22
2023-05-09T02:13:18.756Z,8.20
2023-05-09T02:14:18.787Z,8.21
2023-05-09T02:15:18.722Z,8.23
2023-05-09T02:16:20.611Z,8.23
2023-05-09T02:17:18.656Z,8.20
2023-05-09T02:18:18.719Z,8.20
2023-05-09T02:19:18.638Z,8.19
2023-05-09T02:20:18.706Z,8.20
2023-05-09T02:21:18.636Z,8.19
2023-05-09T02:22:18.632Z,8.17
2023-05-09T02:23:18.584Z,8.15
2023-05-09T02:24:18.639Z,8.10
2023-05-09T02:25:18.555Z,8.10
2023-05-09T02:26:18.795Z,8.10
2023-05-09T02:27:18.595Z,8.13
2023-05-09T02:28:18.555Z,8.17
2023-05-09T02:29:18.496Z,8.16
2023-05-09T02:30:18.583Z,8.12
2023-05-09T02:31:18.479Z,8.12
2023-05-09T02:32:18.499Z,8.13
2023-05-09T02:33:18.474Z,8.17
2023-05-09T02:34:18.489Z,8.18
2023-05-09T02:35:18.430Z,8.17
2023-05-09T02:36:18.425Z,8.18
2023-05-09T02:37:18.409Z,8.16
2023-05-09T02:38:18.434Z,8.15
2023-05-09T02:39:18.396Z,8.15
2023-05-09T02:40:18.440Z,8.18
2023-05-09T02:41:18.340Z,8.20
2023-05-09T02:42:18.365Z,8.22
2023-05-09T02:43:18.319Z,8.26
2023-05-09T02:44:18.365Z,8.29
2023-05-09T02:45:18.293Z,8.30
2023-05-09T02:46:18.448Z,8.29
2023-05-09T02:47:18.254Z,8.25
2023-05-09T02:48:18.318Z,8.21
2023-05-09T02:49:31.586Z,8.18
2023-05-09T02:50:19.287Z,8.13
2023-05-09T02:51:18.326Z,8.10
2023-05-09T02:52:18.185Z,8.07
2023-05-09T02:53:18.238Z,8.07
2023-05-09T02:54:18.180Z,8.04
2023-05-09T02:55:18.289Z,8.04
2023-05-09T02:56:18.170Z,8.06
2023-05-09T02:57:18.158Z,8.06
2023-05-09T02:58:18.117Z,8.07
2023-05-09T02:59:18.179Z,8.05
2023-05-09T03:00:18.078Z,8.03
2023-05-09T03:01:18.212Z,8.01
2023-05-09T03:02:18.074Z,8.01
2023-05-09T03:03:18.508Z,8.01
2023-05-09T03:04:18.054Z,8.00
2023-05-09T03:05:19.158Z,7.99
2023-05-09T03:06:18.007Z,7.97
2023-05-09T03:07:18.117Z,7.96
2023-05-09T03:08:17.997Z,7.94
2023-05-09T03:09:18.042Z,7.94
2023-05-09T03:10:17.969Z,7.93
2023-05-09T03:11:17.968Z,7.92
2023-05-09T03:12:17.909Z,7.91
2023-05-09T03:13:18.033Z,7.93
2023-05-09T03:14:17.920Z,7.93
2023-05-09T03:15:17.997Z,7.93
2023-05-09T03:16:17.905Z,7.95
2023-05-09T03:17:17.897Z,7.96
2023-05-09T03:18:17.860Z,7.96
2023-05-09T03:19:17.934Z,7.96
2023-05-09T03:20:17.840Z,7.96
2023-05-09T03:21:17.823Z,7.97
2023-05-09T03:22:17.780Z,8.02
2023-05-09T03:23:17.831Z,8.09
2023-05-09T03:24:17.755Z,8.15
2023-05-09T03:25:17.997Z,8.20
2023-05-09T03:26:17.762Z,8.26
2023-05-09T03:27:17.751Z,8.28
2023-05-09T03:28:17.711Z,8.31
2023-05-09T03:29:17.784Z,8.35
2023-05-09T03:30:17.676Z,8.37
2023-05-09T03:31:17.747Z,8.36
2023-05-09T03:32:17.698Z,8.35
2023-05-09T03:33:17.710Z,8.35
2023-05-09T03:34:17.624Z,8.35
2023-05-09T03:35:17.717Z,8.36
2023-05-09T03:36:17.628Z,8.37
2023-05-09T03:37:17.620Z,8.38
2023-05-09T03:38:17.626Z,8.40
2023-05-09T03:39:17.666Z,8.42
2023-05-09T03:40:17.541Z,8.43
2023-05-09T03:41:17.565Z,8.48
2023-05-09T03:42:17.510Z,8.51
2023-05-09T03:43:17.581Z,8.53
2023-05-09T03:44:17.525Z,8.54
2023-05-09T03:45:17.574Z,8.55
2023-05-09T03:46:17.513Z,8.56
2023-05-09T03:47:17.549Z,8.57
2023-05-09T03:48:17.429Z,8.57
2023-05-09T03:49:17.509Z,8.58
2023-05-09T03:50:17.431Z,8.59
2023-05-09T03:51:18.472Z,8.60
2023-05-09T03:52:17.433Z,8.61
2023-05-09T03:53:17.486Z,8.60
2023-05-09T03:54:17.366Z,8.60
2023-05-09T03:55:17.529Z,8.59
2023-05-09T03:56:17.369Z,8.58
2023-05-09T03:57:18.428Z,8.58
2023-05-09T03:58:17.295Z,8.59
2023-05-09T03:59:17.382Z,8.63
2023-05-09T04:00:17.292Z,8.68
2023-05-09T04:01:17.290Z,8.73
2023-05-09T04:02:17.344Z,8.77
2023-05-09T04:03:17.377Z,8.80
2023-05-09T04:04:17.567Z,8.80
2023-05-09T04:05:17.641Z,8.80
2023-05-09T04:06:17.216Z,8.81
2023-05-09T04:07:17.255Z,8.81
2023-05-09T04:08:17.210Z,8.79
2023-05-09T04:09:17.253Z,8.80
2023-05-09T04:10:17.241Z,8.80
2023-05-09T04:11:39.344Z,8.82
2023-05-09T04:12:17.119Z,8.83
2023-05-09T04:13:17.238Z,8.83
2023-05-09T04:14:17.147Z,8.82
2023-05-09T04:15:17.294Z,8.83
2023-05-09T04:16:17.119Z,8.84
2023-05-09T04:17:17.114Z,8.84
2023-05-09T04:18:17.038Z,8.85
2023-05-09T04:19:17.123Z,8.86
2023-05-09T04:20:17.080Z,8.87
2023-05-09T04:21:17.090Z,8.89
2023-05-09T04:22:17.001Z,8.92
2023-05-09T04:23:17.037Z,8.97
2023-05-09T04:24:16.961Z,9.00
2023-05-09T04:25:17.271Z,9.02
2023-05-09T04:26:16.983Z,9.03
2023-05-09T04:27:17.005Z,9.04
2023-05-09T04:28:16.932Z,9.06
2023-05-09T04:29:16.985Z,9.09
2023-05-09T04:30:16.893Z,9.13
2023-05-09T04:31:17.033Z,9.15
2023-05-09T04:32:16.928Z,9.19
2023-05-09T04:33:16.932Z,9.22
2023-05-09T04:34:16.831Z,9.24
2023-05-09T04:35:18.936Z,9.28
2023-05-09T04:36:16.840Z,9.33
2023-05-09T04:37:16.994Z,9.33
2023-05-09T04:38:16.826Z,9.35
2023-05-09T04:39:16.852Z,9.35
2023-05-09T04:40:16.795Z,9.35
2023-05-09T04:41:16.830Z,9.34
2023-05-09T04:42:16.753Z,9.33
2023-05-09T04:43:16.801Z,9.33
2023-05-09T04:44:16.774Z,9.33
2023-05-09T04:45:17.078Z,9.35
2023-05-09T04:46:16.728Z,9.38
2023-05-09T04:47:16.719Z,9.40
2023-05-09T04:48:16.652Z,9.40
2023-05-09T04:49:16.723Z,9.39
2023-05-09T04:50:16.646Z,9.38
2023-05-09T04:51:16.759Z,9.37
2023-05-09T04:52:16.617Z,9.37
2023-05-09T04:53:16.705Z,9.38
2023-05-09T04:54:16.582Z,9.38
2023-05-09T04:55:16.928Z,9.40
2023-05-09T04:56:16.584Z,9.40
2023-05-09T04:57:18.869Z,9.42
2023-05-09T04:58:16.568Z,9.44
2023-05-09T04:59:16.665Z,9.45
2023-05-09T05:00:16.508Z,9.47
2023-05-09T05:01:16.596Z,9.49
2023-05-09T05:02:16.504Z,9.54
2023-05-09T05:03:16.511Z,9.58
2023-05-09T05:04:16.506Z,9.60
2023-05-09T05:05:16.573Z,9.61
2023-05-09T05:06:16.424Z,9.63
2023-05-09T05:07:16.442Z,9.62
2023-05-09T05:08:16.419Z,9.65
2023-05-09T05:09:16.469Z,9.67
2023-05-09T05:10:16.347Z,9.67
2023-05-09T05:11:16.388Z,9.69
2023-05-09T05:12:16.347Z,9.70
2023-05-09T05:13:16.471Z,9.69
2023-05-09T05:14:16.370Z,9.68
2023-05-09T05:15:16.673Z,9.67
2023-05-09T05:16:16.297Z,9.68
2023-05-09T05:17:16.355Z,9.66
2023-05-09T05:18:16.254Z,9.65
2023-05-09T05:19:16.323Z,9.67
2023-05-09T05:20:16.243Z,9.68
2023-05-09T05:21:16.264Z,9.71
2023-05-09T05:22:16.301Z,9.73
2023-05-09T05:23:17.279Z,9.76
2023-05-09T05:24:16.169Z,9.77
2023-05-09T05:25:18.281Z,9.78
2023-05-09T05:26:16.163Z,9.82
2023-05-09T05:27:16.186Z,9.86
2023-05-09T05:28:16.156Z,9.90
2023-05-09T05:29:16.192Z,9.95
2023-05-09T05:30:16.242Z,9.98
2023-05-09T05:31:16.151Z,9.99
2023-05-09T05:32:16.084Z,9.99
2023-05-09T05:33:16.121Z,9.98
2023-05-09T05:34:16.046Z,9.99
2023-05-09T05:35:16.417Z,9.99
2023-05-09T05:36:15.995Z,9.98
2023-05-09T05:37:16.056Z,10.01
2023-05-09T05:38:16.014Z,10.05
2023-05-09T05:39:16.066Z,10.09
2023-05-09T05:40:15.960Z,10.12
2023-05-09T05:41:15.995Z,10.13
2023-05-09T05:42:15.953Z,10.15
2023-05-09T05:43:16.017Z,10.15
2023-05-09T05:44:15.999Z,10.15
2023-05-09T05:45:16.362Z,10.15
2023-05-09T05:46:15.902Z,10.14
2023-05-09T05:47:15.930Z,10.15
2023-05-09T05:48:15.840Z,10.19
2023-05-09T05:49:15.937Z,10.24
2023-05-09T05:50:15.881Z,10.28
2023-05-09T05:51:15.844Z,10.37
2023-05-09T05:52:15.817Z,10.45
2023-05-09T05:53:15.855Z,10.50
2023-05-09T05:54:15.812Z,10.54
2023-05-09T05:55:16.008Z,10.56
2023-05-09T05:56:15.799Z,10.62
2023-05-09T05:57:15.772Z,10.67
2023-05-09T05:58:15.706Z,10.69
2023-05-09T05:59:15.825Z,10.70
2023-05-09T06:00:15.688Z,10.73
2023-05-09T06:01:16.270Z,10.72
2023-05-09T06:02:15.815Z,10.67
2023-05-09T06:03:15.873Z,10.61
2023-05-09T06:04:15.682Z,10.58
2023-05-09T06:05:15.854Z,10.58
2023-05-09T06:06:15.615Z,10.57
2023-05-09T06:07:15.660Z,10.58
2023-05-09T06:08:15.589Z,10.58
2023-05-09T06:09:15.653Z,10.60
2023-05-09T06:10:15.540Z,10.64
2023-05-09T06:11:15.579Z,10.65
2023-05-09T06:12:15.513Z,10.63
2023-05-09T06:13:15.630Z,10.62
2023-05-09T06:14:15.503Z,10.65
2023-05-09T06:15:15.651Z,10.68
2023-05-09T06:16:19.992Z,10.72
2023-05-09T06:17:16.657Z,10.77
2023-05-09T06:18:15.562Z,10.80
2023-05-09T06:19:15.442Z,10.84
2023-05-09T06:20:15.487Z,10.89
2023-05-09T06:21:15.415Z,10.92
2023-05-09T06:22:15.483Z,10.96
2023-05-09T06:23:15.375Z,11.02
2023-05-09T06:24:27.552Z,11.10
2023-05-09T06:25:16.648Z,11.13
2023-05-09T06:26:15.382Z,11.16
2023-05-09T06:27:15.304Z,11.20
2023-05-09T06:28:15.500Z,11.22
2023-05-09T06:29:15.280Z,11.24
2023-05-09T06:30:25.646Z,11.26
2023-05-09T06:31:16.317Z,11.30
2023-05-09T06:32:15.314Z,11.33
2023-05-09T06:33:15.236Z,11.35
2023-05-09T06:34:15.229Z,11.36
2023-05-09T06:35:15.511Z,11.36
2023-05-09T06:36:15.362Z,11.34
2023-05-09T06:37:15.203Z,11.36
2023-05-09T06:38:15.311Z,11.42
2023-05-09T06:39:15.169Z,11.45
2023-05-09T06:40:15.180Z,11.45
2023-05-09T06:41:15.139Z,11.45
2023-05-09T06:42:15.221Z,11.45
2023-05-09T06:43:15.132Z,11.44
2023-05-09T06:44:15.116Z,11.45
2023-05-09T06:45:15.308Z,11.49
2023-05-09T06:46:15.178Z,11.54
2023-05-09T06:47:15.037Z,11.63
2023-05-09T06:48:15.188Z,11.70
2023-05-09T06:49:15.052Z,11.73
2023-05-09T06:50:16.086Z,11.74
2023-05-09T06:51:15.003Z,11.74
2023-05-09T06:52:15.073Z,11.75
2023-05-09T06:53:15.157Z,11.77
2023-05-09T06:54:14.970Z,11.79
2023-05-09T06:55:15.260Z,11.80
2023-05-09T06:56:15.101Z,11.81
2023-05-09T06:57:14.955Z,11.81
2023-05-09T06:58:15.015Z,11.83
2023-05-09T06:59:14.873Z,11.86
2023-05-09T07:00:14.897Z,11.89
2023-05-09T07:01:14.957Z,11.92
2023-05-09T07:02:14.941Z,11.97
2023-05-09T07:03:14.835Z,12.04
2023-05-09T07:04:14.837Z,12.11
2023-05-09T07:05:15.099Z,12.13
2023-05-09T07:06:14.893Z,12.12
2023-05-09T07:07:14.793Z,12.11
2023-05-09T07:08:14.862Z,12.10
2023-05-09T07:09:14.747Z,12.12
2023-05-09T07:10:14.799Z,12.15
2023-05-09T07:11:14.729Z,12.20
2023-05-09T07:12:14.798Z,12.26
2023-05-09T07:13:14.816Z,12.32
2023-05-09T07:14:14.728Z,12.37
2023-05-09T07:15:18.486Z,12.39
2023-05-09T07:16:15.701Z,12.38
2023-05-09T07:17:22.965Z,12.38
2023-05-09T07:18:15.690Z,12.41
2023-05-09T07:19:14.650Z,12.46
2023-05-09T07:20:14.645Z,12.48
2023-05-09T07:21:14.670Z,12.49
2023-05-09T07:22:14.600Z,12.51
2023-05-09T07:23:14.683Z,12.53
2023-05-09T07:24:14.932Z,12.55
2023-05-09T07:25:14.930Z,12.58
2023-05-09T07:26:14.550Z,12.60
2023-05-09T07:27:14.608Z,12.57
2023-05-09T07:28:14.502Z,12.53
2023-05-09T07:29:14.538Z,12.51
2023-05-09T07:30:14.690Z,12.49
2023-05-09T07:31:14.598Z,12.49
2023-05-09T07:32:14.516Z,12.54
2023-05-09T07:33:14.632Z,12.61
2023-05-09T07:34:14.427Z,12.66
2023-05-09T07:35:14.728Z,12.71
2023-05-09T07:36:14.409Z,12.75
2023-05-09T07:37:15.500Z,12.76
2023-05-09T07:38:14.374Z,12.77
2023-05-09T07:39:14.390Z,12.79
2023-05-09T07:40:14.727Z,12.83
2023-05-09T07:41:14.567Z,12.88
2023-05-09T07:42:14.337Z,12.96
2023-05-09T07:43:14.410Z,13.02
2023-05-09T07:44:14.306Z,13.07
2023-05-09T07:45:14.515Z,13.13
2023-05-09T07:46:14.304Z,13.18
2023-05-09T07:47:14.366Z,13.31
2023-05-09T07:48:14.322Z,13.51
2023-05-09T07:49:14.283Z,13.69
2023-05-09T07:50:14.231Z,13.71
2023-05-09T07:51:14.271Z,13.69
2023-05-09T07:52:14.185Z,13.66
2023-05-09T07:53:14.188Z,13.64
2023-05-09T07:54:14.191Z,13.59
2023-05-09T07:55:16.572Z,13.56
2023-05-09T07:56:14.133Z,13.54
2023-05-09T07:57:14.211Z,13.54
2023-05-09T07:58:14.106Z,13.56
2023-05-09T07:59:14.109Z,13.53
2023-05-09T08:00:14.103Z,13.52
2023-05-09T08:01:14.139Z,13.51
2023-05-09T08:02:14.054Z,13.51
2023-05-09T08:03:14.146Z,13.49
2023-05-09T08:04:14.097Z,13.48
2023-05-09T08:05:14.427Z,13.49
2023-05-09T08:06:14.039Z,13.56
2023-05-09T08:07:14.058Z,13.60
2023-05-09T08:08:13.968Z,13.58
2023-05-09T08:09:13.992Z,13.56
2023-05-09T08:10:13.945Z,13.56
2023-05-09T08:11:15.068Z,13.57
2023-05-09T08:12:13.977Z,13.61
2023-05-09T08:13:13.952Z,13.65
2023-05-09T08:14:15.546Z,13.65
2023-05-09T08:15:14.260Z,13.60
2023-05-09T08:16:13.918Z,13.56
2023-05-09T08:17:13.939Z,13.52
2023-05-09T08:18:13.852Z,13.50
2023-05-09T08:19:13.835Z,13.52
2023-05-09T08:20:13.817Z,13.54
2023-05-09T08:21:13.892Z,13.58
2023-05-09T08:22:13.784Z,13.63
2023-05-09T08:23:13.775Z,13.67
2023-05-09T08:24:13.763Z,13.64
2023-05-09T08:25:14.066Z,13.65
2023-05-09T08:26:13.719Z,13.67
2023-05-09T08:27:13.812Z,13.71
2023-05-09T08:28:13.684Z,13.75
2023-05-09T08:29:13.715Z,13.77
2023-05-09T08:30:13.720Z,13.78
2023-05-09T08:31:13.849Z,13.78
2023-05-09T08:32:13.650Z,13.81
2023-05-09T08:33:13.714Z,13.85
2023-05-09T08:34:13.643Z,13.88
2023-05-09T08:35:34.711Z,13.90
2023-05-09T08:36:13.817Z,13.88
2023-05-09T08:37:15.220Z,13.90
2023-05-09T08:38:13.575Z,13.91
2023-05-09T08:39:13.589Z,13.94
2023-05-09T08:40:13.737Z,14.00
2023-05-09T08:41:13.583Z,14.05
2023-05-09T08:42:13.501Z,14.07
2023-05-09T08:43:13.518Z,14.08
2023-05-09T08:44:13.496Z,14.10
2023-05-09T08:45:13.609Z,14.12
2023-05-09T08:46:13.489Z,14.11
2023-05-09T08:47:13.599Z,14.10
2023-05-09T08:48:13.425Z,14.12
2023-05-09T08:49:13.450Z,14.17
2023-05-09T08:50:13.690Z,14.26
2023-05-09T08:51:13.494Z,14.28
2023-05-09T08:52:13.446Z,14.27
2023-05-09T08:53:13.443Z,14.28
2023-05-09T08:54:13.477Z,14.29
2023-05-09T08:55:13.428Z,14.31
2023-05-09T08:56:13.338Z,14.34
2023-05-09T08:57:13.314Z,14.39
2023-05-09T08:58:13.302Z,14.43
2023-05-09T08:59:13.374Z,14.47
2023-05-09T09:00:13.450Z,14.52
2023-05-09T09:01:13.410Z,14.55
2023-05-09T09:02:13.389Z,14.53
2023-05-09T09:03:13.275Z,14.50
2023-05-09T09:04:13.212Z,14.50
2023-05-09T09:05:34.004Z,14.53
2023-05-09T09:06:14.227Z,14.55
2023-05-09T09:07:13.217Z,14.59
2023-05-09T09:08:14.238Z,14.64
2023-05-09T09:09:13.124Z,14.69
2023-05-09T09:10:13.315Z,14.71
2023-05-09T09:11:13.140Z,14.74
2023-05-09T09:12:13.247Z,14.77
2023-05-09T09:13:13.096Z,14.82
2023-05-09T09:14:13.127Z,14.88
2023-05-09T09:15:13.046Z,14.92
2023-05-09T09:16:34.124Z,14.95
2023-05-09T09:17:13.024Z,14.95
2023-05-09T09:18:13.133Z,14.95
2023-05-09T09:19:13.060Z,14.93
2023-05-09T09:20:13.386Z,14.90
2023-05-09T09:21:13.004Z,14.87
2023-05-09T09:22:13.045Z,14.85
2023-05-09T09:23:12.960Z,14.85
2023-05-09T09:24:13.007Z,14.87
2023-05-09T09:25:12.917Z,14.91
2023-05-09T09:26:13.020Z,14.95
2023-05-09T09:27:12.919Z,14.91
2023-05-09T09:28:12.981Z,14.90
2023-05-09T09:29:12.887Z,14.89
2023-05-09T09:30:13.147Z,14.86
2023-05-09T09:31:12.853Z,14.86
2023-05-09T09:32:12.975Z,14.89
2023-05-09T09:33:13.089Z,14.95
2023-05-09T09:34:13.844Z,15.00
2023-05-09T09:35:12.782Z,15.07
2023-05-09T09:36:12.874Z,15.13
2023-05-09T09:37:12.777Z,15.18
2023-05-09T09:38:12.793Z,15.24
2023-05-09T09:39:12.742Z,15.30
2023-05-09T09:40:13.010Z,15.33
2023-05-09T09:41:12.767Z,15.38
2023-05-09T09:42:12.750Z,15.44
2023-05-09T09:43:12.693Z,15.44
2023-05-09T09:44:12.741Z,15.45
2023-05-09T09:45:12.644Z,15.49
2023-05-09T09:46:12.732Z,15.54
2023-05-09T09:47:12.631Z,15.62
2023-05-09T09:48:12.785Z,15.69
2023-05-09T09:49:12.621Z,15.75
2023-05-09T09:50:12.800Z,15.81
2023-05-09T09:51:12.573Z,15.83
2023-05-09T09:52:12.642Z,15.84
2023-05-09T09:53:12.559Z,15.83
2023-05-09T09:54:12.614Z,15.83
2023-05-09T09:55:12.528Z,15.85
2023-05-09T09:56:12.639Z,15.93
2023-05-09T09:57:12.508Z,16.02
2023-05-09T09:58:12.585Z,16.10
2023-05-09T09:59:12.487Z,16.19
2023-05-09T10:00:12.770Z,16.26
2023-05-09T10:01:12.462Z,16.30
2023-05-09T10:02:13.483Z,16.32
2023-05-09T10:03:12.518Z,16.33
2023-05-09T10:04:12.602Z,16.35
2023-05-09T10:05:12.427Z,16.39
2023-05-09T10:06:12.391Z,16.42
2023-05-09T10:07:14.907Z,16.46
2023-05-09T10:08:12.494Z,16.49
2023-05-09T10:09:12.367Z,16.52
2023-05-09T10:10:12.411Z,16.58
2023-05-09T10:11:12.308Z,16.65
2023-05-09T10:12:12.363Z,16.69
2023-05-09T10:13:12.519Z,16.66
2023-05-09T10:14:12.333Z,16.65
2023-05-09T10:15:12.328Z,16.63
2023-05-09T10:16:12.429Z,16.61
2023-05-09T10:17:12.360Z,16.59
2023-05-09T10:18:12.444Z,16.55
2023-05-09T10:19:12.217Z,16.51
2023-05-09T10:20:12.504Z,16.51
2023-05-09T10:21:12.166Z,16.53
2023-05-09T10:22:12.366Z,16.58
2023-05-09T10:23:12.148Z,16.66
2023-05-09T10:25:21.423Z,16.44
2023-05-09T10:26:21.402Z,16.44
2023-05-09T10:27:21.432Z,16.68
2023-05-09T10:28:21.301Z,16.83
2023-05-09T10:29:21.369Z,16.94
2023-05-09T10:30:21.257Z,17.01
2023-05-09T10:31:21.303Z,17.05
2023-05-09T10:32:21.241Z,17.07
2023-05-09T10:33:21.358Z,17.02
2023-05-09T10:34:21.197Z,16.98
2023-05-09T10:35:21.293Z,16.97
2023-05-09T10:36:21.196Z,16.99
2023-05-09T10:37:21.206Z,17.02
2023-05-09T10:38:21.146Z,17.07
2023-05-09T10:39:21.271Z,17.09
2023-05-09T10:40:21.131Z,17.07
2023-05-09T10:41:21.143Z,17.05
2023-05-09T10:42:21.097Z,17.03
2023-05-09T10:43:21.145Z,17.05
2023-05-09T10:44:21.067Z,17.12
2023-05-09T10:45:21.118Z,17.22
2023-05-09T10:46:21.090Z,17.29
2023-05-09T10:47:21.139Z,17.36
2023-05-09T10:48:21.019Z,17.42
2023-05-09T10:49:21.120Z,17.52
2023-05-09T10:50:21.059Z,17.58
2023-05-09T10:51:21.056Z,17.65
2023-05-09T10:52:20.955Z,17.68
2023-05-09T10:53:21.019Z,17.71
2023-05-09T10:54:21.010Z,17.75
2023-05-09T10:55:21.026Z,17.77
2023-05-09T10:56:20.924Z,17.83
2023-05-09T10:57:21.011Z,17.89
2023-05-09T10:58:20.920Z,17.94
2023-05-09T10:59:20.953Z,17.97
2023-05-09T11:00:20.855Z,17.98
2023-05-09T11:01:20.911Z,17.98
2023-05-09T11:02:20.846Z,17.98
2023-05-09T11:03:21.080Z,17.99
2023-05-09T11:04:20.816Z,18.02
2023-05-09T11:05:20.897Z,18.04
2023-05-09T11:06:20.788Z,18.07
2023-05-09T11:07:20.804Z,18.10
2023-05-09T11:08:20.748Z,18.12
2023-05-09T11:09:20.878Z,18.13
2023-05-09T11:10:20.760Z,18.13
2023-05-09T11:11:20.753Z,18.14
2023-05-09T11:12:20.717Z,18.15
2023-05-09T11:13:20.808Z,18.20
2023-05-09T11:14:20.671Z,18.28
2023-05-09T11:15:20.717Z,18.36
2023-05-09T11:16:20.689Z,18.43
2023-05-09T11:17:20.689Z,18.48
2023-05-09T11:18:20.635Z,18.51
2023-05-09T11:19:20.693Z,18.53
2023-05-09T11:20:20.599Z,18.57
2023-05-09T11:21:20.663Z,18.60
2023-05-09T11:22:20.572Z,18.63
2023-05-09T11:23:20.633Z,18.66
2023-05-09T11:24:20.544Z,18.70
2023-05-09T11:25:20.660Z,18.75
2023-05-09T11:26:20.519Z,18.75
2023-05-09T11:27:20.658Z,18.76
2023-05-09T11:28:20.516Z,18.77
2023-05-09T11:29:20.565Z,18.79
2023-05-09T11:30:20.526Z,18.84
2023-05-09T11:31:20.526Z,18.90
2023-05-09T11:32:20.484Z,18.94
2023-05-09T11:33:20.582Z,18.98
2023-05-09T11:34:20.397Z,19.00
2023-05-09T11:35:20.510Z,18.99
2023-05-09T11:36:20.414Z,18.98
2023-05-09T11:37:20.417Z,18.99
2023-05-09T11:38:20.355Z,19.05
2023-05-09T11:39:22.446Z,19.10
2023-05-09T11:40:20.353Z,19.16
2023-05-09T11:41:20.348Z,19.20
2023-05-09T11:42:20.305Z,19.27
2023-05-09T11:43:20.364Z,19.33
2023-05-09T11:44:20.279Z,19.41
2023-05-09T11:45:20.336Z,19.50
2023-05-09T11:46:20.331Z,19.56
2023-05-09T11:47:20.295Z,19.56
2023-05-09T11:48:20.230Z,19.55
2023-05-09T11:49:20.302Z,19.55
2023-05-09T11:50:20.199Z,19.53
2023-05-09T11:51:20.281Z,19.55
2023-05-09T11:52:20.182Z,19.57
2023-05-09T11:53:20.223Z,19.54
2023-05-09T11:54:20.133Z,19.53
2023-05-09T11:55:20.250Z,19.57
2023-05-09T11:56:20.119Z,19.63
2023-05-09T11:57:20.232Z,19.69
2023-05-09T11:58:20.090Z,19.76
2023-05-09T11:59:20.161Z,19.83
2023-05-09T12:00:20.054Z,19.88
2023-05-09T12:01:20.102Z,19.93
2023-05-09T12:02:20.116Z,19.96
2023-05-09T12:03:20.316Z,19.98
2023-05-09T12:04:20.079Z,20.03
2023-05-09T12:05:20.139Z,20.09
2023-05-09T12:06:19.995Z,20.14
2023-05-09T12:07:20.024Z,20.18
2023-05-09T12:08:19.973Z,20.23
2023-05-09T12:09:19.990Z,20.23
2023-05-09T12:10:19.936Z,20.18
2023-05-09T12:11:19.996Z,20.13
2023-05-09T12:12:19.963Z,20.13
2023-05-09T12:13:20.007Z,20.12
2023-05-09T12:14:19.886Z,20.10
2023-05-09T12:15:20.170Z,20.15
2023-05-09T12:16:19.888Z,20.22
2023-05-09T12:17:19.880Z,20.29
2023-05-09T12:18:19.832Z,20.38
2023-05-09T12:19:19.903Z,20.41
2023-05-09T12:20:19.849Z,20.42
2023-05-09T12:21:19.876Z,20.47
2023-05-09T12:22:19.767Z,20.52
2023-05-09T12:23:19.860Z,20.62
2023-05-09T12:24:19.772Z,20.70
2023-05-09T12:25:19.890Z,20.76
2023-05-09T12:26:19.727Z,20.77
2023-05-09T12:27:19.844Z,20.74
2023-05-09T12:28:19.708Z,20.70
2023-05-09T12:29:19.768Z,20.65
2023-05-09T12:30:19.674Z,20.58
2023-05-09T12:31:19.734Z,20.54
2023-05-09T12:32:19.643Z,20.55
2023-05-09T12:33:19.762Z,20.60
2023-05-09T12:34:19.620Z,20.59
2023-05-09T12:35:19.744Z,20.53
2023-05-09T12:36:19.604Z,20.45
2023-05-09T12:37:19.640Z,20.37
2023-05-09T12:38:19.578Z,20.33
2023-05-09T12:39:19.696Z,20.31
2023-05-09T12:40:19.632Z,20.35
2023-05-09T12:41:34.983Z,20.35
2023-05-09T12:42:20.519Z,20.31
2023-05-09T12:43:19.590Z,20.28
2023-05-09T12:44:19.486Z,20.27
2023-05-09T12:45:19.562Z,20.32
2023-05-09T12:46:19.505Z,20.37
2023-05-09T12:47:19.548Z,20.41
2023-05-09T12:48:19.444Z,20.49
2023-05-09T12:49:19.513Z,20.61
2023-05-09T12:50:19.420Z,20.71
2023-05-09T12:51:19.484Z,20.74
2023-05-09T12:52:19.381Z,20.76
2023-05-09T12:53:20.474Z,20.81
2023-05-09T12:54:19.338Z,20.87
2023-05-09T12:55:19.459Z,20.89
2023-05-09T12:56:19.357Z,20.87
2023-05-09T12:57:19.419Z,20.86
2023-05-09T12:58:19.318Z,20.87
2023-05-09T12:59:19.385Z,20.87
2023-05-09T13:00:19.272Z,20.89
2023-05-09T13:01:19.454Z,20.94
2023-05-09T13:02:19.328Z,20.96
2023-05-09T13:03:19.521Z,20.97
2023-05-09T13:04:19.211Z,20.96